Time;durP1;ratioP1;P1;durP2;ratioP2;P2;SDS_P1;SDS_P2;PMS_P1;PMS_P2;Temp;Humidity;BMP_temperature;BMP_pressure;BME280_temperature;BME280_humidity;BME280_pressure;Samples;Min_cycle;Max_cycle;Signal;HPM_P1;HPM_P2
2022/05/20 00:01:02;;;;;;;19.90;15.45;;;;;;;12.90;100.00;101166.78;5078268;28;20115;-69
2022/05/20 00:03:29;;;;;;;17.88;15.13;;;;;;;12.81;100.00;101152.22;5078920;28;20021;-69
2022/05/20 00:05:54;;;;;;;19.33;16.05;;;;;;;12.81;100.00;101162.78;5079110;28;20343;-69
2022/05/20 00:08:20;;;;;;;21.02;16.58;;;;;;;12.82;100.00;101174.19;5079151;28;20028;-69
2022/05/20 00:10:45;;;;;;;18.88;15.77;;;;;;;12.74;100.00;101160.53;5079408;28;20111;-69
2022/05/20 00:13:11;;;;;;;20.38;17.27;;;;;;;12.74;100.00;101160.53;5079093;28;20036;-69
2022/05/20 00:15:36;;;;;;;20.77;17.20;;;;;;;12.68;100.00;101150.25;5076950;28;20063;-69
2022/05/20 00:18:02;;;;;;;18.13;16.00;;;;;;;12.68;100.00;101166.91;5084465;28;20028;-69
2022/05/20 00:20:28;;;;;;;19.52;15.43;;;;;;;12.67;100.00;101169.66;5098993;28;20036;-69
2022/05/20 00:22:54;;;;;;;18.63;16.40;;;;;;;12.60;100.00;101161.16;5098589;28;20047;-69
2022/05/20 00:28:05;;;;;;;21.95;19.30;;;;;;;12.50;100.00;101169.56;5098289;28;20505;-69
2022/05/20 00:30:31;;;;;;;24.88;17.45;;;;;;;12.44;100.00;101167.19;5097867;28;20068;-69
2022/05/20 00:32:57;;;;;;;21.75;17.15;;;;;;;12.38;100.00;101156.91;5099098;28;20028;-69
2022/05/20 00:35:23;;;;;;;20.17;18.25;;;;;;;12.38;100.00;101156.91;5099014;28;20039;-69
2022/05/20 00:37:48;;;;;;;22.80;19.50;;;;;;;12.42;100.00;101151.44;5099113;28;20530;-69
2022/05/20 00:40:16;;;;;;;23.65;19.63;;;;;;;12.16;100.00;101113.13;5097679;28;20081;-69
2022/05/20 00:42:42;;;;;;;22.55;20.15;;;;;;;12.36;100.00;101142.97;5098891;28;20039;-69
2022/05/20 00:45:08;;;;;;;24.52;20.08;;;;;;;12.45;100.00;101153.94;5099052;28;20051;-69
2022/05/20 00:47:34;;;;;;;29.42;20.40;;;;;;;12.51;100.00;101155.44;5097743;28;20039;-70
2022/05/20 00:50:03;;;;;;;21.50;19.15;;;;;;;12.52;100.00;101147.47;5095602;28;20028;-70
2022/05/20 00:52:31;;;;;;;23.52;20.10;;;;;;;12.52;100.00;101139.56;5094198;28;20391;-70
2022/05/20 00:55:00;;;;;;;23.20;20.35;;;;;;;12.50;100.00;101125.59;5095674;28;20108;-70
2022/05/20 00:57:33;;;;;;;23.55;20.48;;;;;;;12.58;100.00;101128.72;5094116;28;20150;-70
2022/05/20 01:00:05;;;;;;;26.05;20.58;;;;;;;12.58;100.00;101119.97;5094165;28;20073;-70
2022/05/20 01:02:31;;;;;;;24.02;19.83;;;;;;;12.64;100.00;101119.69;5094241;28;20120;-70
2022/05/20 01:04:59;;;;;;;24.70;20.13;;;;;;;12.68;100.00;101113.31;5095513;28;20070;-70
2022/05/20 01:07:26;;;;;;;21.48;19.30;;;;;;;12.67;100.00;101116.91;5095218;28;20471;-69
2022/05/20 01:09:52;;;;;;;21.42;19.25;;;;;;;12.78;100.00;101131.28;5093628;28;20035;-69
2022/05/20 01:12:17;;;;;;;22.45;19.65;;;;;;;12.80;100.00;101139.13;5095333;28;20027;-69
2022/05/20 01:14:43;;;;;;;24.40;18.98;;;;;;;12.43;100.00;101073.25;5093998;28;20402;-69
2022/05/20 01:17:09;;;;;;;20.10;17.60;;;;;;;12.72;100.00;101114.88;5095210;28;20020;-69
2022/05/20 01:19:38;;;;;;;26.48;21.00;;;;;;;12.26;100.00;101038.00;5093773;28;20031;-69
2022/05/20 01:22:06;;;;;;;34.95;20.17;;;;;;;12.81;100.00;101120.56;5093437;28;20093;-70
2022/05/20 01:24:32;;;;;;;21.23;17.55;;;;;;;12.78;100.00;101110.19;5093674;28;20070;-69
2022/05/20 01:26:57;;;;;;;18.88;16.88;;;;;;;12.90;100.00;101121.94;5093931;28;20055;-69
2022/05/20 01:29:23;;;;;;;23.88;21.33;;;;;;;12.86;100.00;101091.34;5094774;28;20063;-69
2022/05/20 01:31:49;;;;;;;33.55;25.05;;;;;;;12.86;100.00;101101.03;5095081;28;20031;-69
2022/05/20 01:34:14;;;;;;;29.77;23.10;;;;;;;12.83;100.00;101109.97;5094664;28;20028;-70
2022/05/20 01:36:39;;;;;;;24.95;22.10;;;;;;;12.73;100.00;101091.09;5095198;28;20073;-69
2022/05/20 01:39:05;;;;;;;26.63;23.75;;;;;;;12.77;100.00;101113.72;5094384;28;20024;-68
2022/05/20 01:41:34;;;;;;;29.02;25.88;;;;;;;12.70;100.00;101122.03;5094916;28;20020;-68
2022/05/20 01:44:12;;;;;;;36.38;32.55;;;;;;;12.67;100.00;101116.91;5094540;28;20028;-68
2022/05/20 01:47:01;;;;;;;32.10;24.30;;;;;;;12.63;100.00;101113.56;5094806;28;20039;-68
2022/05/20 01:49:29;;;;;;;28.45;19.77;;;;;;;12.53;100.00;101114.91;5094853;28;20036;-68
2022/05/20 01:52:06;;;;;;;28.25;21.27;;;;;;;12.45;100.00;101110.91;5094194;28;20028;-68
2022/05/20 01:54:49;;;;;;;24.10;21.63;;;;;;;12.38;100.00;101104.22;5094459;28;20040;-68
2022/05/20 01:57:49;;;;;;;27.90;22.23;;;;;;;12.29;100.00;101095.81;5093015;28;20489;-69
2022/05/20 02:00:18;;;;;;;27.02;22.65;;;;;;;12.23;100.00;101075.00;5059400;28;20044;-69
2022/05/20 02:02:47;;;;;;;28.92;25.83;;;;;;;12.34;100.00;101092.97;5092068;28;20032;-69
2022/05/20 02:05:32;;;;;;;29.73;25.85;;;;;;;12.35;100.00;101083.28;5093974;28;20023;-69
2022/05/20 02:08:10;;;;;;;35.15;31.63;;;;;;;12.33;100.00;101071.97;5093896;28;20035;-70
2022/05/20 02:10:39;;;;;;;45.22;38.92;;;;;;;12.37;100.00;101069.09;5094580;28;20097;-70
2022/05/20 02:13:08;;;;;;;47.85;40.58;;;;;;;12.52;100.00;101070.16;5092648;28;20119;-70
2022/05/20 02:15:40;;;;;;;51.13;45.70;;;;;;;12.61;100.00;101086.41;5092511;28;20385;-70
2022/05/20 02:18:19;;;;;;;49.20;42.60;;;;;;;12.64;100.00;101062.50;5087701;28;20064;-70
2022/05/20 02:20:48;;;;;;;50.60;45.15;;;;;;;12.81;100.00;101072.25;5071976;28;20529;-68
2022/05/20 02:23:18;;;;;;;51.50;44.10;;;;;;;12.78;100.00;101046.03;5088814;28;20029;-70
2022/05/20 02:25:47;;;;;;;47.72;42.95;;;;;;;12.91;100.00;101047.13;5089053;28;20024;-69
2022/05/20 02:28:18;;;;;;;54.08;47.92;;;;;;;13.00;100.00;101059.88;5073689;28;20379;-70
2022/05/20 02:30:43;;;;;;;52.70;47.38;;;;;;;13.03;100.00;101070.28;5073071;28;20029;-69
2022/05/20 02:33:21;;;;;;;47.97;42.80;;;;;;;13.11;100.00;101078.69;5072326;28;20103;-69
2022/05/20 02:35:47;;;;;;;52.03;46.55;;;;;;;13.14;100.00;101062.72;5073777;28;20035;-69
2022/05/20 02:38:18;;;;;;;50.35;41.90;;;;;;;13.20;100.00;101070.34;5073211;28;20032;-69
2022/05/20 02:40:47;;;;;;;52.45;46.67;;;;;;;13.25;100.00;101078.00;5073246;28;20028;-69
2022/05/20 02:43:12;;;;;;;51.85;43.65;;;;;;;13.28;100.00;101068.16;5072344;28;20028;-69
2022/05/20 02:45:39;;;;;;;50.47;44.97;;;;;;;13.32;100.00;101066.19;5072520;28;20036;-69
2022/05/20 02:48:06;;;;;;;56.08;48.70;;;;;;;13.36;100.00;101064.25;5071061;28;20024;-69
2022/05/20 02:50:31;;;;;;;54.67;48.20;;;;;;;13.36;100.00;101064.25;5072669;28;20400;-69
2022/05/20 02:52:57;;;;;;;51.38;45.80;;;;;;;13.32;100.00;101051.22;5087864;28;20099;-69
2022/05/20 02:55:23;;;;;;;49.50;44.25;;;;;;;13.31;100.00;101044.22;5072521;28;20407;-69
2022/05/20 02:57:48;;;;;;;55.03;48.80;;;;;;;13.29;100.00;101048.75;5072781;28;20081;-69
2022/05/20 03:05:43;;;;;;;57.80;48.77;;;;;;;13.23;100.00;101029.72;5072935;28;20043;-69
2022/05/20 03:08:08;;;;;;;55.60;49.65;;;;;;;13.43;100.00;101071.81;5073103;28;20775;-69
2022/05/20 03:10:33;;;;;;;54.88;49.00;;;;;;;13.46;100.00;101065.50;5073241;28;20041;-69
2022/05/20 03:13:00;;;;;;;56.53;50.83;;;;;;;13.41;100.00;101049.06;5072187;28;20033;-69
2022/05/20 03:15:26;;;;;;;54.03;48.22;;;;;;;13.48;100.00;101059.22;5071465;28;20051;-69
2022/05/20 03:17:51;;;;;;;53.42;47.95;;;;;;;13.42;100.00;101048.97;5072832;28;20021;-69
2022/05/20 03:20:17;;;;;;;60.90;50.00;;;;;;;13.43;100.00;101044.53;5072770;28;20024;-69
2022/05/20 03:22:42;;;;;;;55.97;50.10;;;;;;;13.46;100.00;101047.03;5072988;28;20107;-68
2022/05/20 03:25:08;;;;;;;56.78;49.55;;;;;;;13.48;100.00;101048.66;5076713;28;20031;-68
2022/05/20 03:27:34;;;;;;;50.63;45.10;;;;;;;13.46;100.00;101028.53;5092845;28;20024;-70
2022/05/20 03:29:59;;;;;;;58.08;49.40;;;;;;;13.54;100.00;101032.50;5092769;28;20036;-68
2022/05/20 03:32:25;;;;;;;57.85;48.78;;;;;;;13.56;100.00;101033.25;5093083;28;20028;-70
2022/05/20 03:34:51;;;;;;;58.30;49.83;;;;;;;13.65;100.00;101039.88;5092793;28;20103;-70
2022/05/20 03:37:16;;;;;;;58.60;52.20;;;;;;;13.66;100.00;101039.78;5091550;28;20390;-70
2022/05/20 03:39:41;;;;;;;62.55;52.28;;;;;;;13.66;100.00;101036.28;5093286;28;20036;-71
2022/05/20 03:42:07;;;;;;;66.78;54.97;;;;;;;13.67;100.00;101036.22;5092258;28;20047;-70
2022/05/20 03:44:32;;;;;;;66.30;54.90;;;;;;;13.69;100.00;101038.75;5093318;28;20092;-69
2022/05/20 03:46:58;;;;;;;56.88;47.25;;;;;;;13.64;100.00;101032.88;5093005;28;20496;-69
2022/05/20 03:49:26;;;;;;;60.67;53.08;;;;;;;13.68;100.00;101037.91;5092956;28;20031;-69
2022/05/20 03:51:52;;;;;;;59.88;53.58;;;;;;;13.73;100.00;101037.66;5092355;28;20032;-69
2022/05/20 03:54:19;;;;;;;60.65;54.28;;;;;;;13.72;100.00;101025.41;5092835;28;20038;-69
2022/05/20 03:56:45;;;;;;;58.08;50.03;;;;;;;13.68;100.00;101021.22;5092517;28;20028;-69
2022/05/20 03:59:11;;;;;;;58.47;52.33;;;;;;;13.73;100.00;101027.09;5092821;28;20459;-68
2022/05/20 04:01:57;;;;;;;59.58;51.47;;;;;;;13.55;100.00;100991.13;5084802;28;20024;-69
2022/05/20 04:04:34;;;;;;;53.15;47.90;;;;;;;13.68;100.00;101011.50;5072279;28;20037;-69
2022/05/20 04:07:08;;;;;;;60.20;52.80;;;;;;;13.66;100.00;101015.16;5072832;28;20029;-69
2022/05/20 04:09:33;;;;;;;60.97;54.05;;;;;;;13.63;100.00;101007.38;5072622;28;20044;-69
2022/05/20 04:12:00;;;;;;;54.00;48.15;;;;;;;13.63;100.00;101007.38;5097119;28;20039;-70
2022/05/20 04:14:27;;;;;;;60.53;53.65;;;;;;;13.54;100.00;100986.75;5090935;28;20028;-69
2022/05/20 04:16:57;;;;;;;67.47;52.85;;;;;;;13.64;100.00;101001.19;5087478;28;20467;-69
2022/05/20 04:19:25;;;;;;;55.55;49.42;;;;;;;13.60;100.00;101002.28;5079596;28;20483;-69
2022/05/20 04:21:52;;;;;;;59.50;53.38;;;;;;;13.58;100.00;100999.72;5072390;28;20064;-69
2022/05/20 04:24:18;;;;;;;63.17;56.03;;;;;;;13.46;100.00;100970.47;5077522;28;20039;-69
2022/05/20 04:26:43;;;;;;;60.58;53.65;;;;;;;13.53;100.00;100980.63;5078956;28;20020;-69
2022/05/20 04:29:12;;;;;;;55.85;49.83;;;;;;;13.63;100.00;100996.81;5077450;28;20032;-70
2022/05/20 04:31:43;;;;;;;54.42;48.50;;;;;;;13.63;100.00;100991.53;5081152;28;20032;-70
2022/05/20 04:34:08;;;;;;;62.95;48.10;;;;;;;13.49;100.00;100963.22;5075690;28;20028;-70
2022/05/20 04:36:33;;;;;;;63.00;56.45;;;;;;;13.56;100.00;100983.09;5075695;28;20459;-69
2022/05/20 04:38:59;;;;;;;59.22;52.90;;;;;;;13.56;100.00;100972.53;5075984;28;20043;-69
2022/05/20 04:46:58;;;;;;;59.67;52.47;;;;;;;13.66;100.00;100967.59;5077927;28;20081;-69
2022/05/20 04:49:28;;;;;;;60.35;54.13;;;;;;;13.41;100.00;100917.94;5092933;28;20036;-69
2022/05/20 04:51:54;;;;;;;61.20;52.60;;;;;;;13.80;100.00;100970.38;5075184;28;20177;-69
2022/05/20 04:57:04;;;;;;;63.27;54.53;;;;;;;13.88;100.00;100967.31;5074382;28;20056;-68
2022/05/20 04:59:34;;;;;;;70.22;56.83;;;;;;;13.90;100.00;100966.28;5075264;28;20534;-69
2022/05/20 05:01:59;;;;;;;61.75;55.13;;;;;;;13.96;100.00;100967.75;5074877;28;20040;-69
2022/05/20 05:04:25;;;;;;;52.90;47.40;;;;;;;13.93;100.00;100959.97;5075025;28;20473;-70
2022/05/20 05:06:51;;;;;;;68.88;57.03;;;;;;;14.03;100.00;100961.16;5074993;28;20028;-69
2022/05/20 05:09:17;;;;;;;75.70;57.53;;;;;;;13.92;100.00;100938.00;5075225;28;20077;-69
2022/05/20 05:11:42;;;;;;;64.80;56.58;;;;;;;14.04;100.00;100958.47;5074821;28;20020;-69
2022/05/20 05:14:09;;;;;;;68.55;56.53;;;;;;;14.07;100.00;100958.28;5075229;28;20472;-69
2022/05/20 05:16:35;;;;;;;67.40;54.15;;;;;;;14.08;100.00;100957.34;5075306;28;20391;-69
2022/05/20 05:19:00;;;;;;;56.33;50.22;;;;;;;14.16;100.00;100956.94;5075081;28;20035;-69
2022/05/20 05:21:26;;;;;;;68.35;56.92;;;;;;;14.28;100.00;100962.38;5074934;28;20032;-70
2022/05/20 05:23:53;;;;;;;61.03;53.50;;;;;;;14.36;100.00;100951.41;5046272;28;20795;-69
2022/05/20 05:26:20;;;;;;;63.45;56.63;;;;;;;14.14;100.00;100905.94;5046747;28;20070;-70
2022/05/20 05:28:45;;;;;;;60.97;51.08;;;;;;;14.47;100.00;100948.13;5048191;28;20036;-70
2022/05/20 05:31:11;;;;;;;62.80;56.03;;;;;;;14.57;100.00;100949.28;5047804;28;20914;-70
2022/05/20 05:33:36;;;;;;;65.70;53.38;;;;;;;14.66;100.00;100954.94;5047323;28;21026;-70
2022/05/20 05:36:01;;;;;;;58.30;52.22;;;;;;;14.73;100.00;100958.06;5043424;28;20895;-70
2022/05/20 05:38:27;;;;;;;52.67;47.03;;;;;;;14.79;100.00;100966.50;5039996;28;20892;-70
2022/05/20 05:40:52;;;;;;;58.50;48.30;;;;;;;14.75;100.00;100951.75;5043529;28;20930;-70
2022/05/20 05:43:18;;;;;;;54.72;48.17;;;;;;;14.78;100.00;100956.00;5047573;28;20110;-70
2022/05/20 05:45:43;;;;;;;48.72;43.50;;;;;;;14.83;100.00;100948.66;5048050;28;20028;-70
2022/05/20 05:48:09;;;;;;;55.90;48.15;;;;;;;14.79;100.00;100939.19;5047351;28;20870;-70
2022/05/20 05:50:37;;;;;;;58.13;45.58;;;;;;;14.87;100.00;100968.66;5046161;28;20044;-69
2022/05/20 05:53:14;;;;;;;49.92;42.67;;;;;;;14.73;100.00;100926.31;5040311;28;20016;-69
2022/05/20 05:55:41;;;;;;;52.65;45.35;;;;;;;14.88;100.00;100946.56;5044595;28;20128;-70
2022/05/20 05:58:07;;;;;;;54.50;45.20;;;;;;;15.02;100.00;100965.13;5045278;28;20027;-69
2022/05/20 06:00:33;;;;;;;52.55;46.88;;;;;;;14.99;100.00;100960.03;5039496;28;20029;-70
2022/05/20 06:02:58;;;;;;;54.85;46.38;;;;;;;15.02;100.00;100972.22;5043161;28;20030;-70
2022/05/20 06:05:24;;;;;;;58.92;46.63;;;;;;;14.91;100.00;100954.31;5027299;28;20059;-69
2022/05/20 06:07:51;;;;;;;55.78;46.40;;;;;;;15.01;100.00;100962.56;5045966;28;20063;-69
2022/05/20 06:10:17;;;;;;;53.10;42.80;;;;;;;15.11;100.00;100961.94;5046712;28;20052;-69
2022/05/20 06:12:43;;;;;;;47.83;41.13;;;;;;;15.19;100.00;100946.44;5046797;28;20028;-69
2022/05/20 06:15:13;;;;;;;44.47;39.95;;;;;;;15.48;100.00;100957.06;5048092;28;20880;-69
2022/05/20 06:17:39;;;;;;;48.65;43.70;;;;;;;15.58;100.00;100947.66;5049159;28;20059;-69
2022/05/20 06:20:05;;;;;;;51.35;42.05;;;;;;;15.70;100.00;100958.31;5030713;28;20900;-70
2022/05/20 06:22:30;;;;;;;47.92;39.88;;;;;;;15.81;100.00;100955.88;5030227;28;20905;-70
2022/05/20 06:24:56;;;;;;;44.58;38.83;;;;;;;15.81;100.00;100939.09;5036198;28;20032;-70
2022/05/20 06:27:21;;;;;;;44.10;39.20;;;;;;;15.94;100.00;100940.03;5040147;28;20145;-69
2022/05/20 06:29:47;;;;;;;43.10;36.33;;;;;;;16.03;100.00;100944.72;5034876;28;20866;-69
2022/05/20 06:32:13;;;;;;;49.28;38.72;;;;;;;16.14;100.00;100942.25;5043238;28;20934;-71
2022/05/20 06:40:09;;;;;;;36.88;32.90;;;;;;;15.99;100.00;100890.22;5025715;28;20110;-69
2022/05/20 06:42:34;;;;;;;40.33;34.75;;;;;;;16.23;100.00;100915.13;5026645;28;20916;-69
2022/05/20 06:45:00;;;;;;;47.95;35.80;;;;;;;16.22;100.00;100902.00;5025610;28;20029;-69
2022/05/20 06:47:25;;;;;;;35.33;31.63;;;;;;;16.39;100.00;100920.31;5025064;28;20024;-69
2022/05/20 06:49:51;;;;;;;49.22;34.35;;;;;;;16.52;100.00;100928.28;5025774;28;20078;-69
2022/05/20 06:52:16;;;;;;;38.28;34.15;;;;;;;16.53;100.00;100927.31;5026856;28;20911;-69
2022/05/20 06:54:41;;;;;;;36.05;31.75;;;;;;;16.66;100.00;100926.44;5026038;28;20024;-70
2022/05/20 06:57:07;;;;;;;39.05;32.55;;;;;;;16.72;100.00;100917.22;5026669;28;20135;-69
2022/05/20 06:59:32;;;;;;;38.08;33.63;;;;;;;16.55;100.00;100872.38;5025912;28;20028;-69
2022/05/20 07:02:00;;;;;;;39.65;30.63;;;;;;;16.80;100.00;100898.97;5026744;28;20032;-70
2022/05/20 07:04:29;;;;;;;36.15;32.00;;;;;;;16.89;100.00;100900.16;5028137;28;20085;-70
2022/05/20 07:06:56;;;;;;;38.17;34.35;;;;;;;16.90;100.00;100880.63;5026945;28;20027;-71
2022/05/20 07:09:21;;;;;;;37.53;31.52;;;;;;;16.98;100.00;100897.72;5042744;28;20911;-69
2022/05/20 07:11:47;;;;;;;38.90;34.88;;;;;;;16.99;100.00;100891.47;5025171;28;20032;-69
2022/05/20 07:14:12;;;;;;;38.47;34.45;;;;;;;17.10;100.00;100896.88;5026233;28;20897;-70
2022/05/20 07:16:38;;;;;;;39.38;32.55;;;;;;;17.08;100.00;100882.84;5026760;28;20042;-70
2022/05/20 07:19:03;;;;;;;38.38;33.38;;;;;;;16.91;100.00;100848.66;5025503;28;20039;-69
2022/05/20 07:21:29;;;;;;;36.42;32.47;;;;;;;17.22;100.00;100888.06;5026829;28;20078;-69
2022/05/20 07:23:54;;;;;;;41.03;34.92;;;;;;;17.31;100.00;100890.06;5025674;28;20062;-70
2022/05/20 07:26:19;;;;;;;41.75;33.72;;;;;;;17.28;100.00;100869.03;5026104;28;20135;-69
2022/05/20 07:28:45;;;;;;;38.25;34.15;;;;;;;17.15;100.00;100830.16;5026205;28;20021;-70
2022/05/20 07:31:11;;;;;;;38.55;32.80;;;;;;;17.46;100.00;100860.72;5042696;28;20036;-70
2022/05/20 07:33:37;;;;;;;37.10;33.17;;;;;;;17.56;100.00;100856.47;5040616;28;20090;-70
2022/05/20 07:36:03;;;;;;;40.58;32.53;;;;;;;17.72;100.00;100873.88;5025101;28;20149;-70
2022/05/20 07:38:29;;;;;;;43.30;37.28;;;;;;;17.78;100.00;100856.63;5024076;28;20930;-70
2022/05/20 07:41:00;;;;;;;42.40;37.95;;;;;;;17.93;100.00;100863.50;5025480;28;20024;-70
2022/05/20 07:43:26;;;;;;;40.15;35.80;;;;;;;18.08;100.00;100857.03;5024180;28;20028;-70
2022/05/20 07:45:52;;;;;;;45.67;40.22;;;;;;;18.29;100.00;100849.25;5025583;28;20032;-70
2022/05/20 07:48:18;;;;;;;45.10;36.67;;;;;;;18.44;100.00;100857.91;5042224;28;20135;-70
2022/05/20 07:50:45;;;;;;;44.40;35.25;;;;;;;18.32;100.00;100819.75;5024236;28;20028;-70
2022/05/20 07:53:20;;;;;;;42.92;38.03;;;;;;;18.70;100.00;100851.47;5041163;28;20033;-70
2022/05/20 07:55:50;;;;;;;55.38;38.22;;;;;;;18.82;100.00;100862.03;5040420;28;20132;-69
2022/05/20 07:58:17;;;;;;;45.17;40.30;;;;;;;18.89;100.00;100855.28;5041702;28;20029;-70
2022/05/20 08:00:45;;;;;;;48.00;38.38;;;;;;;18.68;100.00;100811.69;5044861;28;20128;-69
2022/05/20 08:03:14;;;;;;;48.15;40.95;;;;;;;18.96;100.00;100844.97;5035095;28;20038;-70
2022/05/20 08:05:39;;;;;;;45.78;40.80;;;;;;;19.00;100.00;100841.13;5048258;28;20083;-71
2022/05/20 08:08:09;;;;;;;52.47;42.72;;;;;;;19.01;100.00;100845.50;5045979;28;20101;-71
2022/05/20 08:10:35;;;;;;;51.17;42.78;;;;;;;19.02;100.00;100849.84;5048841;28;20042;-70
2022/05/20 08:13:02;;;;;;;50.35;42.10;;;;;;;19.11;100.00;100845.63;5048301;28;20045;-70
2022/05/20 08:15:29;;;;;;;50.83;41.78;;;;;;;18.91;100.00;100803.72;5049748;28;20316;-69
2022/05/20 08:17:55;;;;;;;50.65;45.58;;;;;;;19.12;100.00;100832.19;5048001;28;20857;-70
2022/05/20 08:20:25;;;;;;;43.83;38.80;;;;;;;19.17;100.00;100827.31;5049660;28;20058;-70
2022/05/20 08:22:53;;;;;;;44.83;39.95;;;;;;;19.10;100.00;100812.78;5048142;28;20066;-71
2022/05/20 08:25:19;;;;;;;46.47;41.40;;;;;;;19.34;100.00;100831.31;5049251;28;20032;-70
2022/05/20 08:27:45;;;;;;;49.25;42.85;;;;;;;19.32;100.00;100804.81;5049133;28;20028;-70
2022/05/20 08:30:15;;;;;;;50.72;43.50;;;;;;;19.57;100.00;100809.03;5048807;28;20039;-70
2022/05/20 08:32:41;;;;;;;51.00;43.63;;;;;;;19.67;100.00;100812.63;5049283;28;20028;-70
2022/05/20 08:35:07;;;;;;;59.80;46.78;;;;;;;19.81;100.00;100806.19;5040293;28;20020;-70
2022/05/20 08:37:37;;;;;;;47.63;42.38;;;;;;;19.86;100.00;100806.66;5036536;28;20041;-69
2022/05/20 08:40:04;;;;;;;52.85;44.15;;;;;;;19.96;100.00;100799.59;5029503;28;21025;-69
2022/05/20 08:42:30;;;;;;;54.58;41.88;;;;;;;19.99;100.00;100788.66;5030943;28;20032;-69
2022/05/20 08:44:56;;;;;;;48.25;42.70;;;;;;;19.79;100.00;100749.47;5027354;28;20024;-70
2022/05/20 08:47:42;;;;;;;50.53;38.45;;;;;;;20.10;100.00;100788.63;5028772;28;20029;-70
2022/05/20 08:50:16;;;;;;;48.00;42.75;;;;;;;20.19;100.00;100785.19;5028606;28;20910;-69
2022/05/20 08:52:42;;;;;;;48.83;41.80;;;;;;;20.30;100.00;100782.50;5028335;28;20144;-70
2022/05/20 08:55:08;;;;;;;55.33;43.40;;;;;;;20.33;100.00;100763.53;5046980;28;20030;-70
2022/05/20 08:57:34;;;;;;;48.90;43.60;;;;;;;20.18;100.00;100724.75;5048309;28;20141;-69
2022/05/20 09:00:01;;;;;;;58.10;44.47;;;;;;;20.46;100.00;100754.47;5042443;28;20028;-70
2022/05/20 09:02:26;;;;;;;45.53;40.42;;;;;;;20.43;100.00;100736.06;5048624;28;20964;-69
2022/05/20 09:04:52;;;;;;;47.45;42.75;;;;;;;20.54;100.00;100770.69;5048867;28;20059;-68
2022/05/20 09:07:20;;;;;;;51.08;45.58;;;;;;;20.45;100.00;100755.47;5047506;28;20036;-69
2022/05/20 09:09:57;;;;;;;54.53;43.67;;;;;;;20.33;100.00;100731.50;5047050;28;20052;-70
2022/05/20 09:12:28;;;;;;;53.67;43.53;;;;;;;20.43;100.00;100747.59;5043338;28;20931;-69
2022/05/20 09:17:44;;;;;;;54.97;45.50;;;;;;;20.34;100.00;100716.34;5037531;28;20093;-68
2022/05/20 09:20:14;;;;;;;57.40;44.55;;;;;;;20.45;100.00;100729.59;5041281;28;20039;-68
2022/05/20 09:22:40;;;;;;;52.05;42.05;;;;;;;20.52;100.00;100721.91;5039222;28;20918;-69
2022/05/20 09:25:11;;;;;;;56.25;42.55;;;;;;;20.65;100.00;100725.22;5043756;28;20020;-73
2022/05/20 09:27:39;;;;;;;52.70;42.28;;;;;;;20.44;100.00;100684.38;5043345;28;20027;-69
2022/05/20 09:30:12;;;;;;;53.53;44.05;;;;;;;20.65;100.00;100714.56;5032168;28;20094;-70
2022/05/20 09:32:52;;;;;;;51.58;43.53;;;;;;;20.69;100.00;100699.91;5056583;28;20032;-67
2022/05/20 09:35:17;;;;;;;53.50;45.30;;;;;;;20.79;100.00;100695.47;5038625;28;20035;-69
2022/05/20 09:37:43;;;;;;;54.63;42.15;;;;;;;20.77;100.00;100684.09;5044999;28;20020;-69
2022/05/20 09:40:47;;;;;;;38.47;34.30;;;;;;;20.89;100.00;100658.94;5044179;28;20036;-70
2022/05/20 09:43:28;;;;;;;48.40;39.45;;;;;;;21.30;100.00;100677.50;5030364;28;20038;-70
2022/05/20 09:45:56;;;;;;;43.83;39.08;;;;;;;21.36;100.00;100663.56;5031476;28;20079;-70
2022/05/20 09:48:25;;;;;;;49.95;41.45;;;;;;;21.56;100.00;100664.44;5044908;28;20020;-69
2022/05/20 09:51:03;;;;;;;45.38;40.70;;;;;;;21.67;100.00;100658.94;5048637;28;20028;-69
2022/05/20 09:53:40;;;;;;;41.83;33.13;;;;;;;21.90;100.00;100652.31;5050549;28;20020;-69
2022/05/20 09:56:13;;;;;;;45.22;40.35;;;;;;;21.99;100.00;100621.19;5049646;28;20020;-70
2022/05/20 09:58:38;;;;;;;44.85;35.47;;;;;;;22.23;100.00;100626.91;5049491;28;20036;-69
2022/05/20 10:01:08;;;;;;;39.42;35.05;;;;;;;22.39;100.00;100623.59;5036923;28;20920;-69
2022/05/20 10:03:37;;;;;;;43.78;39.10;;;;;;;22.56;100.00;100611.25;5025906;28;20152;-69
2022/05/20 10:06:22;;;;;;;42.55;38.03;;;;;;;22.66;100.00;100609.38;5026599;28;20127;-69
2022/05/20 10:09:13;;;;;;;44.00;39.08;;;;;;;22.63;100.00;100591.78;5043569;28;20236;-69
2022/05/20 10:12:02;;;;;;;47.20;38.78;;;;;;;22.64;100.00;100585.44;5028963;28;20188;-69
2022/05/20 10:14:36;;;;;;;43.30;38.58;;;;;;;22.79;100.00;100593.81;5026289;28;20864;-69
2022/05/20 10:17:24;;;;;;;;;;;;;;;22.99;100.00;100587.34;5027116;28;20292;-69
2022/05/20 10:20:02;;;;;;;52.30;41.58;;;;;;;23.16;100.00;100578.47;5025655;28;20012;-70
2022/05/20 10:22:46;;;;;;;45.17;40.10;;;;;;;23.27;100.00;100570.19;5041330;28;20093;-69
2022/05/20 10:25:30;;;;;;;52.53;39.92;;;;;;;23.29;100.00;100568.19;5041931;28;20118;-69
2022/05/20 10:33:59;;;;;;;43.70;36.08;;;;;;;23.78;100.00;100536.41;5026872;28;20039;-69
2022/05/20 10:36:34;;;;;;;36.55;32.70;;;;;;;23.99;100.00;100547.59;5027576;28;20025;-69
2022/05/20 10:39:01;;;;;;;40.17;35.40;;;;;;;24.04;100.00;100537.22;5042032;28;20024;-70
2022/05/20 10:42:00;;;;;;;37.45;30.92;;;;;;;24.14;100.00;100523.69;5042340;28;20028;-70
2022/05/20 10:50:20;;;;;;;33.25;29.63;;;;;;;24.17;100.00;100494.69;5027055;28;20098;-69
2022/05/20 10:53:07;;;;;;;35.45;29.48;;;;;;;24.18;100.00;100469.50;5027117;28;20040;-69
2022/05/20 10:55:39;;;;;;;34.65;29.40;;;;;;;24.23;100.00;100444.84;5027654;28;20056;-70
2022/05/20 10:58:19;;;;;;;37.05;28.40;;;;;;;24.24;100.00;100425.88;5025818;28;20135;-69
2022/05/20 11:00:52;;;;;;;31.85;28.48;;;;;;;24.18;100.00;100413.09;5044948;28;20892;-69
2022/05/20 11:03:37;;;;;;;33.70;27.33;;;;;;;24.26;100.00;100421.19;5046603;28;20027;-69
2022/05/20 11:06:05;;;;;;;34.15;30.35;;;;;;;24.23;100.00;100413.44;5045239;28;20028;-69
2022/05/20 11:08:49;;;;;;;32.13;28.80;;;;;;;24.09;100.00;100400.63;5046592;28;20028;-69
2022/05/20 11:11:36;;;;;;;33.28;29.02;;;;;;;23.98;100.00;100395.56;5048623;28;20241;-69
2022/05/20 11:14:12;;;;;;;31.77;27.55;;;;;;;23.79;100.00;100382.41;5046759;28;20035;-69
2022/05/20 11:17:00;;;;;;;32.85;29.30;;;;;;;23.64;100.00;100373.28;5036432;28;20135;-70
2022/05/20 11:20:03;;;;;;;32.00;26.60;;;;;;;23.44;100.00;100379.91;5025446;28;20143;-69
2022/05/20 11:22:44;;;;;;;30.67;27.58;;;;;;;23.29;100.00;100391.19;5026006;28;20934;-69
2022/05/20 11:25:33;;;;;;;29.17;25.98;;;;;;;23.12;100.00;100378.66;5026547;28;20028;-69
2022/05/20 11:28:14;;;;;;;29.85;26.75;;;;;;;22.99;100.00;100372.03;5027747;28;20140;-69
2022/05/20 11:30:52;;;;;;;27.73;23.23;;;;;;;22.81;100.00;100358.69;5056842;28;20252;-69
2022/05/20 11:33:42;;;;;;;28.02;24.60;;;;;;;22.72;100.00;100348.91;5045318;28;20070;-69
2022/05/20 11:36:24;;;;;;;30.25;26.98;;;;;;;22.51;100.00;100356.41;5046463;28;20039;-69
2022/05/20 11:39:08;;;;;;;32.85;29.30;;;;;;;22.25;100.00;100365.19;5046850;28;20036;-69
2022/05/20 11:42:11;;;;;;;30.67;27.45;;;;;;;21.91;100.00;100364.16;5047176;28;20036;-69
2022/05/20 11:44:49;;;;;;;34.92;31.42;;;;;;;21.69;100.00;100377.94;5026201;28;20041;-69
2022/05/20 11:47:34;;;;;;;35.55;31.70;;;;;;;21.47;100.00;100394.34;5045741;28;20962;-69
2022/05/20 11:50:16;;;;;;;36.05;31.90;;;;;;;21.19;100.00;100396.94;5048342;28;20035;-68